sensor_id;sensor_type;location;lat;lon;timestamp;temperature;humidity
6792;DHT22;3433;48.730;9.108;2024-03-29T00:00:10;7.80;96.60
6792;DHT22;3433;48.730;9.108;2024-03-29T00:02:57;7.50;96.90
6792;DHT22;3433;48.730;9.108;2024-03-29T00:05:43;8.10;96.60
6792;DHT22;3433;48.730;9.108;2024-03-29T00:08:31;8.40;96.20
6792;DHT22;3433;48.730;9.108;2024-03-29T00:11:17;8.60;96.10
6792;DHT22;3433;48.730;9.108;2024-03-29T00:14:04;8.10;96.40
6792;DHT22;3433;48.730;9.108;2024-03-29T00:16:50;8.10;96.60
6792;DHT22;3433;48.730;9.108;2024-03-29T00:19:36;7.90;96.50
6792;DHT22;3433;48.730;9.108;2024-03-29T00:22:22;7.90;96.80
6792;DHT22;3433;48.730;9.108;2024-03-29T00:25:10;7.90;96.90
6792;DHT22;3433;48.730;9.108;2024-03-29T00:27:56;7.80;96.90
6792;DHT22;3433;48.730;9.108;2024-03-29T00:30:43;8.10;97.10
6792;DHT22;3433;48.730;9.108;2024-03-29T00:33:29;8.10;96.70
6792;DHT22;3433;48.730;9.108;2024-03-29T00:36:15;7.90;96.90
6792;DHT22;3433;48.730;9.108;2024-03-29T00:39:02;7.80;97.10
6792;DHT22;3433;48.730;9.108;2024-03-29T00:41:49;7.80;97.30
6792;DHT22;3433;48.730;9.108;2024-03-29T00:44:35;7.60;97.30
6792;DHT22;3433;48.730;9.108;2024-03-29T00:47:22;7.40;97.70
6792;DHT22;3433;48.730;9.108;2024-03-29T00:50:09;7.50;97.70
6792;DHT22;3433;48.730;9.108;2024-03-29T00:52:55;7.70;97.60
6792;DHT22;3433;48.730;9.108;2024-03-29T00:55:41;7.90;97.40
6792;DHT22;3433;48.730;9.108;2024-03-29T00:58:29;8.20;97.20
6792;DHT22;3433;48.730;9.108;2024-03-29T01:01:15;8.60;96.80
6792;DHT22;3433;48.730;9.108;2024-03-29T01:04:02;8.70;96.60
6792;DHT22;3433;48.730;9.108;2024-03-29T01:06:48;8.90;96.50
6792;DHT22;3433;48.730;9.108;2024-03-29T01:09:34;9.00;96.40
6792;DHT22;3433;48.730;9.108;2024-03-29T01:12:20;9.10;96.60
6792;DHT22;3433;48.730;9.108;2024-03-29T01:15:08;9.00;96.30
6792;DHT22;3433;48.730;9.108;2024-03-29T01:17:55;9.00;96.30
6792;DHT22;3433;48.730;9.108;2024-03-29T01:20:41;8.60;96.50
6792;DHT22;3433;48.730;9.108;2024-03-29T01:23:27;8.50;96.30
6792;DHT22;3433;48.730;9.108;2024-03-29T01:26:13;7.90;97.00
6792;DHT22;3433;48.730;9.108;2024-03-29T01:29:00;8.10;97.00
6792;DHT22;3433;48.730;9.108;2024-03-29T01:31:47;8.50;96.90
6792;DHT22;3433;48.730;9.108;2024-03-29T01:34:34;8.70;97.00
6792;DHT22;3433;48.730;9.108;2024-03-29T01:37:20;8.80;96.70
6792;DHT22;3433;48.730;9.108;2024-03-29T01:40:07;8.90;96.60
6792;DHT22;3433;48.730;9.108;2024-03-29T01:42:53;8.90;96.40
6792;DHT22;3433;48.730;9.108;2024-03-29T01:45:41;8.80;96.30
6792;DHT22;3433;48.730;9.108;2024-03-29T01:48:32;8.90;96.40
6792;DHT22;3433;48.730;9.108;2024-03-29T01:51:21;8.90;96.40
6792;DHT22;3433;48.730;9.108;2024-03-29T01:54:09;8.90;96.60
6792;DHT22;3433;48.730;9.108;2024-03-29T01:56:57;8.80;96.60
6792;DHT22;3433;48.730;9.108;2024-03-29T01:59:46;8.80;96.30
6792;DHT22;3433;48.730;9.108;2024-03-29T02:02:33;8.70;96.30
6792;DHT22;3433;48.730;9.108;2024-03-29T02:05:22;8.70;96.20
6792;DHT22;3433;48.730;9.108;2024-03-29T02:08:10;8.40;95.80
6792;DHT22;3433;48.730;9.108;2024-03-29T02:10:57;8.30;95.90
6792;DHT22;3433;48.730;9.108;2024-03-29T02:13:45;8.10;96.10
6792;DHT22;3433;48.730;9.108;2024-03-29T02:16:33;8.10;96.60
6792;DHT22;3433;48.730;9.108;2024-03-29T02:19:20;8.00;96.70
6792;DHT22;3433;48.730;9.108;2024-03-29T02:22:10;8.00;96.80
6792;DHT22;3433;48.730;9.108;2024-03-29T02:25:01;8.10;96.90
6792;DHT22;3433;48.730;9.108;2024-03-29T02:27:49;8.60;96.70
6792;DHT22;3433;48.730;9.108;2024-03-29T02:30:37;8.70;96.60
6792;DHT22;3433;48.730;9.108;2024-03-29T02:33:24;8.60;96.50
6792;DHT22;3433;48.730;9.108;2024-03-29T02:36:11;8.60;96.40
6792;DHT22;3433;48.730;9.108;2024-03-29T02:38:59;8.70;96.50
6792;DHT22;3433;48.730;9.108;2024-03-29T02:41:48;8.70;96.50
6792;DHT22;3433;48.730;9.108;2024-03-29T02:44:35;8.50;95.90
6792;DHT22;3433;48.730;9.108;2024-03-29T02:47:22;8.60;96.30
6792;DHT22;3433;48.730;9.108;2024-03-29T02:50:13;8.50;95.90
6792;DHT22;3433;48.730;9.108;2024-03-29T02:53:00;8.80;96.40
6792;DHT22;3433;48.730;9.108;2024-03-29T02:55:46;8.80;96.00
6792;DHT22;3433;48.730;9.108;2024-03-29T02:58:35;8.70;95.90
6792;DHT22;3433;48.730;9.108;2024-03-29T03:01:22;9.20;96.50
6792;DHT22;3433;48.730;9.108;2024-03-29T03:04:09;9.10;95.80
6792;DHT22;3433;48.730;9.108;2024-03-29T03:06:56;9.00;95.90
6792;DHT22;3433;48.730;9.108;2024-03-29T03:10:03;9.10;95.90
6792;DHT22;3433;48.730;9.108;2024-03-29T03:13:08;9.00;95.40
6792;DHT22;3433;48.730;9.108;2024-03-29T03:15:56;9.20;95.80
6792;DHT22;3433;48.730;9.108;2024-03-29T03:18:44;9.30;96.00
6792;DHT22;3433;48.730;9.108;2024-03-29T03:21:31;9.50;95.70
6792;DHT22;3433;48.730;9.108;2024-03-29T03:24:17;9.40;95.30
6792;DHT22;3433;48.730;9.108;2024-03-29T03:27:04;9.50;95.50
6792;DHT22;3433;48.730;9.108;2024-03-29T03:29:50;9.60;95.70
6792;DHT22;3433;48.730;9.108;2024-03-29T03:32:39;9.70;95.70
6792;DHT22;3433;48.730;9.108;2024-03-29T03:35:25;9.60;95.50
6792;DHT22;3433;48.730;9.108;2024-03-29T03:38:13;9.80;95.80
6792;DHT22;3433;48.730;9.108;2024-03-29T03:41:01;9.60;94.80
6792;DHT22;3433;48.730;9.108;2024-03-29T03:43:47;9.30;95.10
6792;DHT22;3433;48.730;9.108;2024-03-29T03:46:34;9.10;95.30
6792;DHT22;3433;48.730;9.108;2024-03-29T03:49:22;9.00;95.20
6792;DHT22;3433;48.730;9.108;2024-03-29T03:52:09;8.90;95.40
6792;DHT22;3433;48.730;9.108;2024-03-29T03:54:57;9.10;95.20
6792;DHT22;3433;48.730;9.108;2024-03-29T03:57:43;9.20;95.90
6792;DHT22;3433;48.730;9.108;2024-03-29T04:00:30;9.40;95.70
6792;DHT22;3433;48.730;9.108;2024-03-29T04:03:17;9.60;96.00
6792;DHT22;3433;48.730;9.108;2024-03-29T04:06:06;9.50;95.10
6792;DHT22;3433;48.730;9.108;2024-03-29T04:08:52;9.60;95.50
6792;DHT22;3433;48.730;9.108;2024-03-29T04:11:39;9.40;94.60
6792;DHT22;3433;48.730;9.108;2024-03-29T04:14:25;9.40;95.00
6792;DHT22;3433;48.730;9.108;2024-03-29T04:17:13;9.00;94.80
6792;DHT22;3433;48.730;9.108;2024-03-29T04:19:59;9.20;95.80
6792;DHT22;3433;48.730;9.108;2024-03-29T04:22:48;8.80;94.80
6792;DHT22;3433;48.730;9.108;2024-03-29T04:25:35;8.70;95.20
6792;DHT22;3433;48.730;9.108;2024-03-29T04:28:22;9.00;95.70
6792;DHT22;3433;48.730;9.108;2024-03-29T04:31:08;9.20;95.20
6792;DHT22;3433;48.730;9.108;2024-03-29T04:33:57;9.20;95.40
6792;DHT22;3433;48.730;9.108;2024-03-29T04:36:43;9.30;95.50
6792;DHT22;3433;48.730;9.108;2024-03-29T04:39:32;9.30;95.60
6792;DHT22;3433;48.730;9.108;2024-03-29T04:42:19;8.60;95.60
6792;DHT22;3433;48.730;9.108;2024-03-29T04:45:07;8.80;95.50
6792;DHT22;3433;48.730;9.108;2024-03-29T04:47:54;8.70;95.30
6792;DHT22;3433;48.730;9.108;2024-03-29T04:50:41;8.90;95.80
6792;DHT22;3433;48.730;9.108;2024-03-29T04:53:28;9.30;96.20
6792;DHT22;3433;48.730;9.108;2024-03-29T04:56:17;9.00;95.30
6792;DHT22;3433;48.730;9.108;2024-03-29T04:59:04;8.80;96.00
6792;DHT22;3433;48.730;9.108;2024-03-29T05:01:53;9.00;95.80
6792;DHT22;3433;48.730;9.108;2024-03-29T05:04:41;8.90;95.20
6792;DHT22;3433;48.730;9.108;2024-03-29T05:07:28;9.00;95.50
6792;DHT22;3433;48.730;9.108;2024-03-29T05:10:16;9.20;95.50
6792;DHT22;3433;48.730;9.108;2024-03-29T05:13:05;9.30;94.80
6792;DHT22;3433;48.730;9.108;2024-03-29T05:15:52;9.20;95.20
6792;DHT22;3433;48.730;9.108;2024-03-29T05:18:40;9.30;95.30
6792;DHT22;3433;48.730;9.108;2024-03-29T05:21:27;9.50;94.60
6792;DHT22;3433;48.730;9.108;2024-03-29T05:24:14;9.40;94.90
6792;DHT22;3433;48.730;9.108;2024-03-29T05:27:01;9.70;95.40
6792;DHT22;3433;48.730;9.108;2024-03-29T05:29:50;9.90;95.30
6792;DHT22;3433;48.730;9.108;2024-03-29T05:32:37;10.00;94.70
6792;DHT22;3433;48.730;9.108;2024-03-29T05:35:24;10.00;94.90
6792;DHT22;3433;48.730;9.108;2024-03-29T05:38:11;9.90;94.60
6792;DHT22;3433;48.730;9.108;2024-03-29T05:40:58;9.90;94.90
6792;DHT22;3433;48.730;9.108;2024-03-29T05:43:46;10.10;94.80
6792;DHT22;3433;48.730;9.108;2024-03-29T05:46:34;10.20;94.80
6792;DHT22;3433;48.730;9.108;2024-03-29T05:49:21;10.10;94.40
6792;DHT22;3433;48.730;9.108;2024-03-29T05:52:09;10.00;94.30
6792;DHT22;3433;48.730;9.108;2024-03-29T05:54:56;10.00;94.70
6792;DHT22;3433;48.730;9.108;2024-03-29T05:57:43;10.00;94.10
6792;DHT22;3433;48.730;9.108;2024-03-29T06:00:30;9.80;94.70
6792;DHT22;3433;48.730;9.108;2024-03-29T06:03:20;10.00;94.60
6792;DHT22;3433;48.730;9.108;2024-03-29T06:06:07;10.00;94.40
6792;DHT22;3433;48.730;9.108;2024-03-29T06:08:57;9.90;95.40
6792;DHT22;3433;48.730;9.108;2024-03-29T06:11:45;9.70;94.60
6792;DHT22;3433;48.730;9.108;2024-03-29T06:14:32;9.60;94.60
6792;DHT22;3433;48.730;9.108;2024-03-29T06:17:36;9.80;94.90
6792;DHT22;3433;48.730;9.108;2024-03-29T06:20:25;9.90;95.10
6792;DHT22;3433;48.730;9.108;2024-03-29T06:23:12;10.20;94.80
6792;DHT22;3433;48.730;9.108;2024-03-29T06:26:00;10.30;95.00
6792;DHT22;3433;48.730;9.108;2024-03-29T06:28:47;10.20;94.80
6792;DHT22;3433;48.730;9.108;2024-03-29T06:31:34;10.30;94.80
6792;DHT22;3433;48.730;9.108;2024-03-29T06:34:22;10.30;94.90
6792;DHT22;3433;48.730;9.108;2024-03-29T06:37:10;10.30;94.90
6792;DHT22;3433;48.730;9.108;2024-03-29T06:39:57;10.20;94.50
6792;DHT22;3433;48.730;9.108;2024-03-29T06:42:45;10.40;95.10
6792;DHT22;3433;48.730;9.108;2024-03-29T06:45:32;10.50;94.90
6792;DHT22;3433;48.730;9.108;2024-03-29T06:48:19;10.60;94.90
6792;DHT22;3433;48.730;9.108;2024-03-29T06:51:06;10.70;94.90
6792;DHT22;3433;48.730;9.108;2024-03-29T06:53:55;10.70;94.70
6792;DHT22;3433;48.730;9.108;2024-03-29T06:56:42;10.90;95.00
6792;DHT22;3433;48.730;9.108;2024-03-29T06:59:29;11.00;94.90
6792;DHT22;3433;48.730;9.108;2024-03-29T07:02:16;10.90;93.80
6792;DHT22;3433;48.730;9.108;2024-03-29T07:05:04;10.80;94.00
6792;DHT22;3433;48.730;9.108;2024-03-29T07:07:53;11.00;94.90
6792;DHT22;3433;48.730;9.108;2024-03-29T07:10:43;11.20;99.90
6792;DHT22;3433;48.730;9.108;2024-03-29T07:13:30;11.60;99.90
6792;DHT22;3433;48.730;9.108;2024-03-29T07:16:18;12.00;99.90
6792;DHT22;3433;48.730;9.108;2024-03-29T07:19:05;12.20;97.90
6792;DHT22;3433;48.730;9.108;2024-03-29T07:21:53;12.10;93.00
6792;DHT22;3433;48.730;9.108;2024-03-29T07:24:40;12.10;94.90
6792;DHT22;3433;48.730;9.108;2024-03-29T07:27:31;11.90;95.90
6792;DHT22;3433;48.730;9.108;2024-03-29T07:30:19;12.00;95.80
6792;DHT22;3433;48.730;9.108;2024-03-29T07:33:07;12.00;95.60
6792;DHT22;3433;48.730;9.108;2024-03-29T07:35:55;12.00;96.30
6792;DHT22;3433;48.730;9.108;2024-03-29T07:38:43;11.60;97.10
6792;DHT22;3433;48.730;9.108;2024-03-29T07:41:30;11.70;97.00
6792;DHT22;3433;48.730;9.108;2024-03-29T07:44:19;11.70;98.30
6792;DHT22;3433;48.730;9.108;2024-03-29T07:47:07;10.70;98.90
6792;DHT22;3433;48.730;9.108;2024-03-29T07:49:54;10.90;98.70
6792;DHT22;3433;48.730;9.108;2024-03-29T07:52:41;11.00;99.60
6792;DHT22;3433;48.730;9.108;2024-03-29T07:55:31;10.70;99.90
6792;DHT22;3433;48.730;9.108;2024-03-29T07:58:18;10.80;99.40
6792;DHT22;3433;48.730;9.108;2024-03-29T08:01:07;10.60;99.90
6792;DHT22;3433;48.730;9.108;2024-03-29T08:03:54;10.70;99.90
6792;DHT22;3433;48.730;9.108;2024-03-29T08:06:41;10.70;99.90
6792;DHT22;3433;48.730;9.108;2024-03-29T08:09:28;10.60;99.90
6792;DHT22;3433;48.730;9.108;2024-03-29T08:12:16;10.40;99.90
6792;DHT22;3433;48.730;9.108;2024-03-29T08:15:04;10.50;99.90
6792;DHT22;3433;48.730;9.108;2024-03-29T08:17:53;10.50;99.90
6792;DHT22;3433;48.730;9.108;2024-03-29T08:20:40;10.40;99.90
6792;DHT22;3433;48.730;9.108;2024-03-29T08:23:28;10.10;99.90
6792;DHT22;3433;48.730;9.108;2024-03-29T08:26:15;10.10;99.90
6792;DHT22;3433;48.730;9.108;2024-03-29T08:29:02;10.10;99.90
6792;DHT22;3433;48.730;9.108;2024-03-29T08:31:49;10.00;99.90
6792;DHT22;3433;48.730;9.108;2024-03-29T08:34:38;10.10;99.90
6792;DHT22;3433;48.730;9.108;2024-03-29T08:37:25;10.30;99.90
6792;DHT22;3433;48.730;9.108;2024-03-29T08:40:13;10.40;99.90
6792;DHT22;3433;48.730;9.108;2024-03-29T08:43:01;10.50;99.90
6792;DHT22;3433;48.730;9.108;2024-03-29T08:45:50;10.60;99.90
6792;DHT22;3433;48.730;9.108;2024-03-29T08:48:37;10.60;99.90
6792;DHT22;3433;48.730;9.108;2024-03-29T08:51:29;10.60;99.90
6792;DHT22;3433;48.730;9.108;2024-03-29T08:54:16;10.70;99.90
6792;DHT22;3433;48.730;9.108;2024-03-29T08:57:04;10.80;99.90
6792;DHT22;3433;48.730;9.108;2024-03-29T08:59:52;10.90;99.90
6792;DHT22;3433;48.730;9.108;2024-03-29T09:02:39;11.00;99.90
6792;DHT22;3433;48.730;9.108;2024-03-29T09:05:26;11.00;99.90
6792;DHT22;3433;48.730;9.108;2024-03-29T09:08:17;11.10;99.90
6792;DHT22;3433;48.730;9.108;2024-03-29T09:11:04;11.10;99.90
6792;DHT22;3433;48.730;9.108;2024-03-29T09:13:51;11.00;99.90
6792;DHT22;3433;48.730;9.108;2024-03-29T09:16:39;11.00;99.90
6792;DHT22;3433;48.730;9.108;2024-03-29T09:19:27;11.10;99.90
6792;DHT22;3433;48.730;9.108;2024-03-29T09:22:16;10.90;99.90
6792;DHT22;3433;48.730;9.108;2024-03-29T09:25:05;10.90;99.90
6792;DHT22;3433;48.730;9.108;2024-03-29T09:27:55;10.90;99.90
6792;DHT22;3433;48.730;9.108;2024-03-29T09:36:47;10.90;99.90
6792;DHT22;3433;48.730;9.108;2024-03-29T09:39:34;11.00;99.90
6792;DHT22;3433;48.730;9.108;2024-03-29T09:42:23;11.00;99.90
6792;DHT22;3433;48.730;9.108;2024-03-29T09:45:12;11.10;99.90
6792;DHT22;3433;48.730;9.108;2024-03-29T09:48:00;11.30;99.90
6792;DHT22;3433;48.730;9.108;2024-03-29T09:50:48;11.40;99.90
6792;DHT22;3433;48.730;9.108;2024-03-29T09:53:37;11.50;99.90
6792;DHT22;3433;48.730;9.108;2024-03-29T09:56:25;11.60;99.90
6792;DHT22;3433;48.730;9.108;2024-03-29T09:59:14;11.60;99.90
6792;DHT22;3433;48.730;9.108;2024-03-29T10:02:08;11.70;99.90
6792;DHT22;3433;48.730;9.108;2024-03-29T10:05:00;11.80;99.90
6792;DHT22;3433;48.730;9.108;2024-03-29T10:07:50;12.00;99.90
6792;DHT22;3433;48.730;9.108;2024-03-29T10:10:37;12.10;99.90
6792;DHT22;3433;48.730;9.108;2024-03-29T10:13:26;12.10;99.90
6792;DHT22;3433;48.730;9.108;2024-03-29T10:16:18;11.50;99.90
6792;DHT22;3433;48.730;9.108;2024-03-29T10:19:07;11.60;99.90
6792;DHT22;3433;48.730;9.108;2024-03-29T10:22:05;12.00;99.90
6792;DHT22;3433;48.730;9.108;2024-03-29T10:24:53;12.00;99.90
6792;DHT22;3433;48.730;9.108;2024-03-29T10:27:40;12.00;99.90
6792;DHT22;3433;48.730;9.108;2024-03-29T10:30:27;11.50;99.90
6792;DHT22;3433;48.730;9.108;2024-03-29T10:33:16;11.60;99.90
6792;DHT22;3433;48.730;9.108;2024-03-29T10:36:04;11.70;99.90
6792;DHT22;3433;48.730;9.108;2024-03-29T10:38:52;12.20;99.90
6792;DHT22;3433;48.730;9.108;2024-03-29T10:41:40;12.00;99.90
6792;DHT22;3433;48.730;9.108;2024-03-29T10:50:55;12.50;99.90
6792;DHT22;3433;48.730;9.108;2024-03-29T10:53:44;12.20;99.90
6792;DHT22;3433;48.730;9.108;2024-03-29T10:56:34;12.20;99.90
6792;DHT22;3433;48.730;9.108;2024-03-29T10:59:26;11.90;99.90
6792;DHT22;3433;48.730;9.108;2024-03-29T11:02:31;12.10;99.90
6792;DHT22;3433;48.730;9.108;2024-03-29T11:05:21;12.40;99.90
6792;DHT22;3433;48.730;9.108;2024-03-29T11:08:10;12.50;99.90
6792;DHT22;3433;48.730;9.108;2024-03-29T11:10:59;12.60;99.90
6792;DHT22;3433;48.730;9.108;2024-03-29T11:13:51;12.40;99.90
6792;DHT22;3433;48.730;9.108;2024-03-29T11:16:40;12.40;99.90
6792;DHT22;3433;48.730;9.108;2024-03-29T11:19:31;12.80;99.90
6792;DHT22;3433;48.730;9.108;2024-03-29T11:22:18;13.00;99.90
6792;DHT22;3433;48.730;9.108;2024-03-29T11:25:10;13.40;99.90
6792;DHT22;3433;48.730;9.108;2024-03-29T11:28:04;13.60;99.90
6792;DHT22;3433;48.730;9.108;2024-03-29T11:30:53;13.80;99.90
6792;DHT22;3433;48.730;9.108;2024-03-29T11:33:45;14.00;99.90
6792;DHT22;3433;48.730;9.108;2024-03-29T11:36:34;13.90;99.90
6792;DHT22;3433;48.730;9.108;2024-03-29T11:39:22;13.60;99.90
6792;DHT22;3433;48.730;9.108;2024-03-29T11:42:11;13.80;99.90
6792;DHT22;3433;48.730;9.108;2024-03-29T11:44:58;13.80;99.90
6792;DHT22;3433;48.730;9.108;2024-03-29T11:47:45;13.90;99.90
6792;DHT22;3433;48.730;9.108;2024-03-29T11:50:33;13.80;99.90
6792;DHT22;3433;48.730;9.108;2024-03-29T11:53:20;13.40;99.90
6792;DHT22;3433;48.730;9.108;2024-03-29T11:56:07;13.40;99.90
6792;DHT22;3433;48.730;9.108;2024-03-29T11:58:56;13.40;99.90
6792;DHT22;3433;48.730;9.108;2024-03-29T12:01:45;13.40;99.90
6792;DHT22;3433;48.730;9.108;2024-03-29T12:04:32;13.50;99.90
6792;DHT22;3433;48.730;9.108;2024-03-29T12:07:20;12.90;99.90
6792;DHT22;3433;48.730;9.108;2024-03-29T12:10:08;13.00;99.90
6792;DHT22;3433;48.730;9.108;2024-03-29T12:12:56;13.10;99.90
6792;DHT22;3433;48.730;9.108;2024-03-29T12:15:45;12.90;99.90
6792;DHT22;3433;48.730;9.108;2024-03-29T12:18:32;13.00;99.90
6792;DHT22;3433;48.730;9.108;2024-03-29T12:21:19;13.10;99.90
6792;DHT22;3433;48.730;9.108;2024-03-29T12:24:07;13.40;99.90
6792;DHT22;3433;48.730;9.108;2024-03-29T12:26:55;13.10;99.90
6792;DHT22;3433;48.730;9.108;2024-03-29T12:29:43;13.00;99.90
6792;DHT22;3433;48.730;9.108;2024-03-29T12:32:32;13.20;99.90
6792;DHT22;3433;48.730;9.108;2024-03-29T12:35:21;13.20;99.90
6792;DHT22;3433;48.730;9.108;2024-03-29T12:38:11;13.60;99.90
6792;DHT22;3433;48.730;9.108;2024-03-29T12:40:59;14.00;99.90
6792;DHT22;3433;48.730;9.108;2024-03-29T12:43:47;14.10;99.90
6792;DHT22;3433;48.730;9.108;2024-03-29T12:46:34;13.90;99.90
6792;DHT22;3433;48.730;9.108;2024-03-29T12:49:25;14.10;99.90
6792;DHT22;3433;48.730;9.108;2024-03-29T12:52:12;14.50;99.90
6792;DHT22;3433;48.730;9.108;2024-03-29T12:55:00;14.80;99.90
6792;DHT22;3433;48.730;9.108;2024-03-29T12:57:47;15.10;99.90
6792;DHT22;3433;48.730;9.108;2024-03-29T13:00:35;14.60;99.90
6792;DHT22;3433;48.730;9.108;2024-03-29T13:03:22;14.50;99.90
6792;DHT22;3433;48.730;9.108;2024-03-29T13:06:11;14.60;99.90
6792;DHT22;3433;48.730;9.108;2024-03-29T13:08:59;14.70;99.90
6792;DHT22;3433;48.730;9.108;2024-03-29T13:11:46;15.00;99.90
6792;DHT22;3433;48.730;9.108;2024-03-29T13:14:33;15.40;99.90
6792;DHT22;3433;48.730;9.108;2024-03-29T13:17:21;15.60;99.90
6792;DHT22;3433;48.730;9.108;2024-03-29T13:20:09;15.40;99.90
6792;DHT22;3433;48.730;9.108;2024-03-29T13:22:58;15.60;99.90
6792;DHT22;3433;48.730;9.108;2024-03-29T13:25:46;15.80;99.90
6792;DHT22;3433;48.730;9.108;2024-03-29T13:28:33;15.50;99.90
6792;DHT22;3433;48.730;9.108;2024-03-29T13:31:20;15.80;99.90
6792;DHT22;3433;48.730;9.108;2024-03-29T13:34:09;15.80;99.90
6792;DHT22;3433;48.730;9.108;2024-03-29T13:36:58;15.90;99.90
6792;DHT22;3433;48.730;9.108;2024-03-29T13:39:48;15.80;99.90
6792;DHT22;3433;48.730;9.108;2024-03-29T13:42:36;15.80;99.90
6792;DHT22;3433;48.730;9.108;2024-03-29T13:45:23;15.70;99.90
6792;DHT22;3433;48.730;9.108;2024-03-29T13:48:11;15.50;99.90
6792;DHT22;3433;48.730;9.108;2024-03-29T13:50:59;16.10;99.90
6792;DHT22;3433;48.730;9.108;2024-03-29T13:53:46;16.00;99.90
6792;DHT22;3433;48.730;9.108;2024-03-29T13:56:34;16.20;99.90
6792;DHT22;3433;48.730;9.108;2024-03-29T13:59:22;16.30;99.90
6792;DHT22;3433;48.730;9.108;2024-03-29T14:02:09;16.20;99.90
6792;DHT22;3433;48.730;9.108;2024-03-29T14:04:57;16.20;99.90
6792;DHT22;3433;48.730;9.108;2024-03-29T14:07:44;16.20;99.90
6792;DHT22;3433;48.730;9.108;2024-03-29T14:10:34;15.80;99.90
6792;DHT22;3433;48.730;9.108;2024-03-29T14:13:23;16.10;99.90
6792;DHT22;3433;48.730;9.108;2024-03-29T14:16:10;16.40;99.90
6792;DHT22;3433;48.730;9.108;2024-03-29T14:18:58;16.10;99.90
6792;DHT22;3433;48.730;9.108;2024-03-29T14:21:45;16.20;99.90
6792;DHT22;3433;48.730;9.108;2024-03-29T14:24:33;16.50;99.90
6792;DHT22;3433;48.730;9.108;2024-03-29T14:27:21;16.70;99.90
6792;DHT22;3433;48.730;9.108;2024-03-29T14:30:13;16.40;99.90
6792;DHT22;3433;48.730;9.108;2024-03-29T14:33:01;16.20;99.90
6792;DHT22;3433;48.730;9.108;2024-03-29T14:35:52;16.20;99.90
6792;DHT22;3433;48.730;9.108;2024-03-29T14:38:39;16.70;99.90
6792;DHT22;3433;48.730;9.108;2024-03-29T14:41:28;16.20;99.90
6792;DHT22;3433;48.730;9.108;2024-03-29T14:44:15;16.60;99.90
6792;DHT22;3433;48.730;9.108;2024-03-29T14:47:04;16.90;99.90
6792;DHT22;3433;48.730;9.108;2024-03-29T14:49:52;16.90;99.90
6792;DHT22;3433;48.730;9.108;2024-03-29T14:52:39;16.90;99.90
6792;DHT22;3433;48.730;9.108;2024-03-29T14:55:26;16.20;99.90
6792;DHT22;3433;48.730;9.108;2024-03-29T14:58:13;16.30;99.90
6792;DHT22;3433;48.730;9.108;2024-03-29T15:01:01;16.10;99.90
6792;DHT22;3433;48.730;9.108;2024-03-29T15:03:49;15.60;99.90
6792;DHT22;3433;48.730;9.108;2024-03-29T15:06:38;15.60;99.90
6792;DHT22;3433;48.730;9.108;2024-03-29T15:09:25;15.60;99.90
6792;DHT22;3433;48.730;9.108;2024-03-29T15:12:13;15.90;99.90
6792;DHT22;3433;48.730;9.108;2024-03-29T15:15:00;16.10;99.90
6792;DHT22;3433;48.730;9.108;2024-03-29T15:17:47;16.00;99.90
6792;DHT22;3433;48.730;9.108;2024-03-29T15:20:37;16.20;99.90
6792;DHT22;3433;48.730;9.108;2024-03-29T15:23:25;16.50;99.90
6792;DHT22;3433;48.730;9.108;2024-03-29T15:26:13;16.50;99.90
6792;DHT22;3433;48.730;9.108;2024-03-29T15:29:01;16.60;99.90
6792;DHT22;3433;48.730;9.108;2024-03-29T15:31:54;16.40;99.90
6792;DHT22;3433;48.730;9.108;2024-03-29T15:34:41;16.40;99.90
6792;DHT22;3433;48.730;9.108;2024-03-29T15:37:30;16.10;99.90
6792;DHT22;3433;48.730;9.108;2024-03-29T15:40:18;16.00;99.90
6792;DHT22;3433;48.730;9.108;2024-03-29T15:43:05;16.00;99.90
6792;DHT22;3433;48.730;9.108;2024-03-29T15:45:53;16.20;99.90
6792;DHT22;3433;48.730;9.108;2024-03-29T15:48:40;16.20;99.90
6792;DHT22;3433;48.730;9.108;2024-03-29T15:51:27;16.20;99.90
6792;DHT22;3433;48.730;9.108;2024-03-29T15:54:16;16.40;99.90
6792;DHT22;3433;48.730;9.108;2024-03-29T15:57:05;16.40;99.90
6792;DHT22;3433;48.730;9.108;2024-03-29T15:59:52;16.50;99.90
6792;DHT22;3433;48.730;9.108;2024-03-29T16:02:46;16.30;99.90
6792;DHT22;3433;48.730;9.108;2024-03-29T16:05:34;16.10;99.90
6792;DHT22;3433;48.730;9.108;2024-03-29T16:08:22;16.30;99.90
6792;DHT22;3433;48.730;9.108;2024-03-29T16:11:11;16.30;99.90
6792;DHT22;3433;48.730;9.108;2024-03-29T16:13:58;16.30;99.90
6792;DHT22;3433;48.730;9.108;2024-03-29T16:16:45;16.00;99.90
6792;DHT22;3433;48.730;9.108;2024-03-29T16:19:32;15.80;99.90
6792;DHT22;3433;48.730;9.108;2024-03-29T16:22:18;15.60;99.90
6792;DHT22;3433;48.730;9.108;2024-03-29T16:25:06;15.80;99.90
6792;DHT22;3433;48.730;9.108;2024-03-29T16:27:55;15.60;99.90
6792;DHT22;3433;48.730;9.108;2024-03-29T16:30:43;15.40;99.90
6792;DHT22;3433;48.730;9.108;2024-03-29T16:33:29;15.30;99.90
6792;DHT22;3433;48.730;9.108;2024-03-29T16:36:16;15.30;99.90
6792;DHT22;3433;48.730;9.108;2024-03-29T16:39:03;15.50;99.90
6792;DHT22;3433;48.730;9.108;2024-03-29T16:41:50;15.40;99.90
6792;DHT22;3433;48.730;9.108;2024-03-29T16:44:38;15.40;99.90
6792;DHT22;3433;48.730;9.108;2024-03-29T16:47:25;15.50;99.90
6792;DHT22;3433;48.730;9.108;2024-03-29T16:50:12;15.70;99.90
6792;DHT22;3433;48.730;9.108;2024-03-29T16:52:58;15.90;99.90
6792;DHT22;3433;48.730;9.108;2024-03-29T16:55:45;16.00;99.90
6792;DHT22;3433;48.730;9.108;2024-03-29T16:58:32;16.00;99.90
6792;DHT22;3433;48.730;9.108;2024-03-29T17:01:21;15.80;99.90
6792;DHT22;3433;48.730;9.108;2024-03-29T17:04:07;15.30;99.90
6792;DHT22;3433;48.730;9.108;2024-03-29T17:06:54;15.20;99.90
6792;DHT22;3433;48.730;9.108;2024-03-29T17:09:41;15.30;99.90
6792;DHT22;3433;48.730;9.108;2024-03-29T17:12:29;15.20;99.90
6792;DHT22;3433;48.730;9.108;2024-03-29T17:15:15;15.20;99.90
6792;DHT22;3433;48.730;9.108;2024-03-29T17:18:04;15.50;99.90
6792;DHT22;3433;48.730;9.108;2024-03-29T17:20:50;15.50;99.90
6792;DHT22;3433;48.730;9.108;2024-03-29T17:23:37;15.60;99.90
6792;DHT22;3433;48.730;9.108;2024-03-29T17:26:24;15.60;99.90
6792;DHT22;3433;48.730;9.108;2024-03-29T17:29:11;15.60;99.90
6792;DHT22;3433;48.730;9.108;2024-03-29T17:31:57;15.60;99.90
6792;DHT22;3433;48.730;9.108;2024-03-29T17:34:45;15.70;99.90
6792;DHT22;3433;48.730;9.108;2024-03-29T17:37:32;15.70;99.90
6792;DHT22;3433;48.730;9.108;2024-03-29T17:40:19;15.60;99.90
6792;DHT22;3433;48.730;9.108;2024-03-29T17:43:06;15.50;99.90
6792;DHT22;3433;48.730;9.108;2024-03-29T17:45:54;15.50;99.90
6792;DHT22;3433;48.730;9.108;2024-03-29T17:48:41;15.60;99.90
6792;DHT22;3433;48.730;9.108;2024-03-29T17:51:30;15.60;99.90
6792;DHT22;3433;48.730;9.108;2024-03-29T17:54:16;15.40;99.90
6792;DHT22;3433;48.730;9.108;2024-03-29T17:57:03;15.40;99.90
6792;DHT22;3433;48.730;9.108;2024-03-29T17:59:49;15.50;99.90
6792;DHT22;3433;48.730;9.108;2024-03-29T18:02:37;15.30;99.90
6792;DHT22;3433;48.730;9.108;2024-03-29T18:05:24;15.40;99.90
6792;DHT22;3433;48.730;9.108;2024-03-29T18:08:13;15.20;99.90
6792;DHT22;3433;48.730;9.108;2024-03-29T18:10:59;15.20;99.90
6792;DHT22;3433;48.730;9.108;2024-03-29T18:13:46;15.10;99.90
6792;DHT22;3433;48.730;9.108;2024-03-29T18:16:33;15.20;99.90
6792;DHT22;3433;48.730;9.108;2024-03-29T18:19:20;15.20;99.90
6792;DHT22;3433;48.730;9.108;2024-03-29T18:22:07;15.10;99.90
6792;DHT22;3433;48.730;9.108;2024-03-29T18:24:55;15.10;99.90
6792;DHT22;3433;48.730;9.108;2024-03-29T18:27:42;15.00;99.90
6792;DHT22;3433;48.730;9.108;2024-03-29T18:30:29;15.00;99.90
6792;DHT22;3433;48.730;9.108;2024-03-29T18:33:16;15.00;99.90